createdAt,value
2018-02-14T00:00:22.008Z,18.21
2018-02-14T00:02:48.188Z,18.21
2018-02-14T00:05:14.363Z,18.20
2018-02-14T00:07:41.046Z,18.19
2018-02-14T00:10:07.215Z,18.15
2018-02-14T00:12:33.376Z,18.15
2018-02-14T00:14:59.806Z,18.15
2018-02-14T00:17:26.008Z,18.12
2018-02-14T00:19:52.176Z,18.11
2018-02-14T00:22:18.370Z,18.09
2018-02-14T00:24:44.598Z,18.07
2018-02-14T00:27:11.034Z,18.05
2018-02-14T00:29:37.234Z,18.08
2018-02-14T00:32:03.452Z,18.06
2018-02-14T00:34:29.865Z,18.05
2018-02-14T00:36:56.506Z,18.03
2018-02-14T00:39:22.993Z,18.01
2018-02-14T00:41:49.172Z,18.01
2018-02-14T00:44:15.824Z,18.01
2018-02-14T00:46:42.027Z,18.02
2018-02-14T00:49:08.188Z,17.99
2018-02-14T00:51:34.418Z,17.98
2018-02-14T00:54:00.975Z,18.02
2018-02-14T00:56:27.203Z,18.00
2018-02-14T00:58:53.644Z,17.98
2018-02-14T01:01:19.845Z,17.98
2018-02-14T01:03:46.486Z,17.97
2018-02-14T01:06:12.656Z,17.96
2018-02-14T01:08:38.873Z,17.98
2018-02-14T01:11:05.344Z,18.00
2018-02-14T01:13:31.516Z,18.01
2018-02-14T01:15:58.010Z,18.02
2018-02-14T01:18:24.314Z,18.01
2018-02-14T01:20:50.499Z,17.93
2018-02-14T01:23:16.674Z,17.88
2018-02-14T01:25:42.910Z,17.95
2018-02-14T01:28:09.061Z,17.98
2018-02-14T01:30:35.251Z,18.00
2018-02-14T01:33:01.469Z,17.98
2018-02-14T01:35:27.978Z,18.02
2018-02-14T01:37:54.230Z,18.03
2018-02-14T01:40:20.442Z,18.08
2018-02-14T01:42:46.641Z,18.08
2018-02-14T01:45:13.198Z,18.08
2018-02-14T01:47:39.380Z,18.07
2018-02-14T01:50:05.865Z,18.04
2018-02-14T01:52:32.461Z,18.00
2018-02-14T01:54:58.655Z,18.02
2018-02-14T01:57:24.828Z,18.00
2018-02-14T01:59:51.073Z,18.01
2018-02-14T02:02:18.494Z,18.03
2018-02-14T02:04:44.666Z,18.00
2018-02-14T02:07:10.905Z,17.99
2018-02-14T02:09:37.530Z,17.98
2018-02-14T02:12:03.697Z,17.97
2018-02-14T02:14:29.927Z,17.93
2018-02-14T02:16:56.234Z,17.94
2018-02-14T02:19:22.420Z,17.95
2018-02-14T02:21:48.623Z,17.98
2018-02-14T02:24:15.215Z,17.94
2018-02-14T02:26:41.740Z,17.94
2018-02-14T02:29:07.942Z,17.90
2018-02-14T02:31:34.572Z,17.89
2018-02-14T02:34:00.745Z,17.86
2018-02-14T02:36:27.267Z,17.89
2018-02-14T02:38:53.527Z,17.94
2018-02-14T02:41:19.683Z,17.98
2018-02-14T02:43:45.935Z,17.97
2018-02-14T02:46:12.113Z,17.97
2018-02-14T02:48:38.277Z,17.94
2018-02-14T02:51:04.844Z,18.00
2018-02-14T02:53:31.014Z,18.00
2018-02-14T02:55:57.216Z,17.96
2018-02-14T02:58:23.493Z,17.89
2018-02-14T03:00:49.664Z,17.86
2018-02-14T03:03:15.928Z,17.82
2018-02-14T03:05:42.196Z,17.77
2018-02-14T03:08:08.364Z,17.71
2018-02-14T03:10:34.524Z,17.76
2018-02-14T03:13:01.015Z,17.80
2018-02-14T03:15:27.222Z,17.83
2018-02-14T03:17:53.440Z,17.83
2018-02-14T03:20:20.044Z,17.83
2018-02-14T03:22:46.250Z,17.89
2018-02-14T03:25:12.450Z,17.92
2018-02-14T03:27:38.678Z,17.90
2018-02-14T03:30:04.838Z,17.90
2018-02-14T03:32:31.071Z,17.90
2018-02-14T03:34:57.295Z,17.86
2018-02-14T03:37:23.457Z,17.84
2018-02-14T03:39:49.640Z,17.82
2018-02-14T03:42:15.810Z,17.82
2018-02-14T03:44:42.372Z,17.83
2018-02-14T03:47:08.565Z,17.86
2018-02-14T03:49:34.749Z,17.86
2018-02-14T03:52:01.003Z,17.82
2018-02-14T03:56:58.910Z,17.83
2018-02-14T03:59:25.544Z,17.83
2018-02-14T04:01:52.016Z,17.86
2018-02-14T04:04:18.191Z,17.87
2018-02-14T04:06:45.222Z,17.84
2018-02-14T04:09:11.403Z,17.86
2018-02-14T04:11:37.608Z,17.89
2018-02-14T04:14:03.807Z,17.87
2018-02-14T04:16:29.967Z,17.85
2018-02-14T04:18:56.444Z,17.87
2018-02-14T04:21:22.628Z,17.89
2018-02-14T04:23:49.246Z,17.91
2018-02-14T04:26:15.457Z,17.90
2018-02-14T04:28:41.704Z,17.92
2018-02-14T04:31:08.260Z,17.89
2018-02-14T04:33:34.723Z,17.87
2018-02-14T04:36:00.901Z,17.81
2018-02-14T04:38:27.121Z,17.79
2018-02-14T04:40:53.607Z,17.78
2018-02-14T04:43:19.785Z,17.75
2018-02-14T04:45:46.061Z,17.73
2018-02-14T04:48:12.261Z,17.77
2018-02-14T04:50:38.728Z,17.78
2018-02-14T04:53:05.264Z,17.81
2018-02-14T04:55:31.467Z,17.83
2018-02-14T04:57:57.621Z,17.77
2018-02-14T05:00:24.208Z,17.75
2018-02-14T05:02:50.432Z,17.74
2018-02-14T05:05:16.600Z,17.72
2018-02-14T05:07:43.150Z,17.73
2018-02-14T05:10:09.318Z,17.74
2018-02-14T05:12:35.486Z,17.68
2018-02-14T05:15:01.924Z,17.72
2018-02-14T05:17:28.119Z,17.75
2018-02-14T05:19:54.442Z,17.78
2018-02-14T05:22:20.628Z,17.78
2018-02-14T05:24:46.807Z,17.81
2018-02-14T05:27:13.021Z,17.82
2018-02-14T05:29:39.206Z,17.80
2018-02-14T05:32:05.728Z,17.76
2018-02-14T05:34:31.889Z,17.73
2018-02-14T05:36:58.083Z,17.75
2018-02-14T05:39:24.926Z,17.75
2018-02-14T05:41:51.124Z,17.73
2018-02-14T05:44:17.592Z,17.70
2018-02-14T05:46:44.169Z,17.78
2018-02-14T05:49:10.365Z,17.77
2018-02-14T05:51:36.533Z,17.73
2018-02-14T05:54:03.207Z,17.73
2018-02-14T05:56:29.369Z,17.69
2018-02-14T05:58:55.529Z,17.65
2018-02-14T06:01:22.591Z,17.66
2018-02-14T06:03:49.049Z,17.66
2018-02-14T06:06:15.212Z,17.64
2018-02-14T06:08:41.454Z,17.66
2018-02-14T06:11:07.637Z,17.67
2018-02-14T06:13:33.803Z,17.64
2018-02-14T06:16:00.346Z,17.58
2018-02-14T06:18:26.529Z,17.57
2018-02-14T06:20:52.749Z,17.56
2018-02-14T06:23:18.985Z,17.56
2018-02-14T06:25:45.161Z,17.63
2018-02-14T06:28:11.331Z,17.69
2018-02-14T06:30:37.581Z,17.71
2018-02-14T06:33:03.855Z,17.63
2018-02-14T06:35:30.048Z,17.56
2018-02-14T06:37:56.596Z,17.52
2018-02-14T06:40:22.782Z,17.59
2018-02-14T06:42:48.984Z,17.67
2018-02-14T06:45:15.291Z,17.73
2018-02-14T06:47:41.494Z,17.73
2018-02-14T06:50:07.678Z,17.71
2018-02-14T06:52:33.875Z,17.73
2018-02-14T06:55:00.320Z,17.71
2018-02-14T06:57:26.790Z,17.71
2018-02-14T06:59:52.968Z,17.75
2018-02-14T07:02:19.205Z,17.87
2018-02-14T07:04:45.685Z,17.95
2018-02-14T07:07:11.889Z,17.87
2018-02-14T07:09:38.483Z,17.87
2018-02-14T07:12:04.672Z,17.95
2018-02-14T07:14:30.905Z,17.98
2018-02-14T07:16:57.163Z,18.00
2018-02-14T07:19:29.310Z,17.96
2018-02-14T07:21:55.569Z,17.87
2018-02-14T07:24:21.791Z,17.80
2018-02-14T07:26:47.968Z,17.79
2018-02-14T07:29:14.197Z,17.77
2018-02-14T07:31:40.389Z,17.75
2018-02-14T07:34:06.558Z,17.72
2018-02-14T07:36:32.820Z,17.72
2018-02-14T07:38:59.325Z,17.73
2018-02-14T07:41:25.855Z,17.72
2018-02-14T07:43:52.077Z,17.71
2018-02-14T07:46:18.262Z,17.69
2018-02-14T07:48:44.433Z,17.77
2018-02-14T07:51:10.636Z,17.82
2018-02-14T07:53:36.913Z,17.97
2018-02-14T07:56:03.211Z,17.98
2018-02-14T07:58:29.395Z,17.90
2018-02-14T08:00:55.662Z,17.84
2018-02-14T08:03:22.055Z,17.84
2018-02-14T08:05:48.543Z,17.97
2018-02-14T08:08:14.780Z,18.05
2018-02-14T08:10:41.317Z,18.00
2018-02-14T08:13:07.748Z,17.91
2018-02-14T08:15:33.974Z,17.88
2018-02-14T08:18:00.198Z,17.85
2018-02-14T08:20:26.441Z,17.85
2018-02-14T08:22:52.651Z,17.84
2018-02-14T08:25:18.899Z,17.79
2018-02-14T08:27:45.106Z,17.79
2018-02-14T08:30:11.319Z,17.80
2018-02-14T08:32:37.518Z,17.81
2018-02-14T08:35:03.776Z,17.81
2018-02-14T08:37:29.971Z,17.87
2018-02-14T08:39:56.155Z,17.89
2018-02-14T08:42:22.361Z,17.93
2018-02-14T08:44:48.530Z,17.98
2018-02-14T08:47:15.456Z,18.03
2018-02-14T08:49:41.625Z,18.07
2018-02-14T08:52:07.924Z,18.12
2018-02-14T08:54:34.142Z,18.21
2018-02-14T08:57:00.339Z,18.25
2018-02-14T08:59:26.515Z,18.31
2018-02-14T09:01:53.088Z,18.38
2018-02-14T09:04:19.293Z,18.45
2018-02-14T09:06:45.787Z,18.46
2018-02-14T09:09:12.032Z,18.39
2018-02-14T09:11:38.212Z,18.34
2018-02-14T09:14:04.404Z,18.41
2018-02-14T09:16:30.644Z,18.40
2018-02-14T09:18:56.827Z,18.38
2018-02-14T09:21:23.008Z,18.32
2018-02-14T09:23:49.628Z,18.33
2018-02-14T09:26:16.121Z,18.37
2018-02-14T09:28:42.664Z,18.39
2018-02-14T09:31:08.891Z,18.39
2018-02-14T09:33:35.064Z,18.35
2018-02-14T09:36:01.232Z,18.35
2018-02-14T09:38:27.472Z,18.35
2018-02-14T09:40:53.644Z,18.36
2018-02-14T09:43:19.805Z,18.36
2018-02-14T09:45:46.064Z,18.37
2018-02-14T09:48:12.257Z,18.41
2018-02-14T09:50:38.436Z,18.41
2018-02-14T09:53:05.353Z,18.42
2018-02-14T09:55:31.613Z,18.45
2018-02-14T09:57:57.801Z,18.54
2018-02-14T10:00:24.038Z,18.57
2018-02-14T10:02:50.238Z,18.69
2018-02-14T10:05:16.421Z,18.67
2018-02-14T10:07:43.228Z,18.70
2018-02-14T10:10:09.469Z,18.70
2018-02-14T10:12:35.633Z,18.65
2018-02-14T10:15:02.303Z,18.66
2018-02-14T10:17:28.501Z,18.72
2018-02-14T10:19:54.742Z,18.72
2018-02-14T10:22:20.982Z,18.72
2018-02-14T10:24:47.441Z,18.80
2018-02-14T10:27:13.616Z,18.79
2018-02-14T10:29:39.910Z,18.77
2018-02-14T10:32:06.436Z,18.77
2018-02-14T10:34:32.622Z,18.80
2018-02-14T10:36:58.868Z,18.80
2018-02-14T10:39:25.038Z,18.79
2018-02-14T10:41:51.242Z,18.80
2018-02-14T10:44:17.749Z,18.84
2018-02-14T10:46:43.921Z,18.85
2018-02-14T10:49:10.332Z,18.86
2018-02-14T10:51:37.794Z,18.88
2018-02-14T10:54:04.028Z,18.90
2018-02-14T10:56:30.247Z,18.98
2018-02-14T10:58:56.491Z,19.00
2018-02-14T11:01:28.754Z,19.04
2018-02-14T11:03:54.974Z,19.11
2018-02-14T11:06:27.285Z,19.18
2018-02-14T11:08:53.468Z,19.16
2018-02-14T11:11:19.679Z,19.15
2018-02-14T11:13:45.922Z,19.11
2018-02-14T11:16:12.092Z,19.12
2018-02-14T11:18:38.305Z,19.16
2018-02-14T11:21:04.539Z,19.23
2018-02-14T11:23:30.903Z,19.26
2018-02-14T11:25:57.155Z,19.27
2018-02-14T11:28:23.385Z,19.32
2018-02-14T11:30:49.590Z,19.35
2018-02-14T11:33:15.847Z,19.38
2018-02-14T11:35:42.391Z,19.37
2018-02-14T11:38:08.677Z,19.34
2018-02-14T11:40:34.919Z,19.29
2018-02-14T11:43:01.092Z,19.27
2018-02-14T11:45:27.609Z,19.28
2018-02-14T11:47:53.828Z,19.32
2018-02-14T11:50:20.033Z,19.33
2018-02-14T11:52:46.238Z,19.38
2018-02-14T11:55:12.796Z,19.39
2018-02-14T11:57:38.975Z,19.39
2018-02-14T12:00:05.174Z,19.46
2018-02-14T12:02:31.414Z,19.43
2018-02-14T12:04:57.616Z,19.46
2018-02-14T12:07:23.785Z,19.45
2018-02-14T12:09:49.985Z,19.46
2018-02-14T12:12:16.156Z,19.52
2018-02-14T12:14:42.400Z,19.57
2018-02-14T12:17:08.610Z,19.63
2018-02-14T12:19:34.863Z,19.63
2018-02-14T12:22:01.051Z,19.72
2018-02-14T12:24:27.280Z,19.78
2018-02-14T12:26:53.513Z,19.85
2018-02-14T12:29:19.686Z,19.87
2018-02-14T12:31:45.865Z,19.87
2018-02-14T12:34:12.168Z,19.84
2018-02-14T12:36:38.400Z,19.87
2018-02-14T12:39:05.043Z,19.94
2018-02-14T12:41:31.578Z,19.95
2018-02-14T12:43:57.788Z,19.95
2018-02-14T12:46:24.345Z,19.96
2018-02-14T12:48:50.590Z,19.98
2018-02-14T12:51:16.801Z,20.01
2018-02-14T12:53:42.961Z,20.01
2018-02-14T12:56:09.218Z,20.04
2018-02-14T12:58:35.637Z,20.12
2018-02-14T13:01:01.838Z,20.17
2018-02-14T13:03:28.069Z,20.25
2018-02-14T13:05:54.233Z,20.30
2018-02-14T13:08:20.702Z,20.32
2018-02-14T13:10:47.240Z,20.30
2018-02-14T13:13:13.426Z,20.34
2018-02-14T13:15:39.620Z,20.36
2018-02-14T13:18:06.203Z,20.39
2018-02-14T13:20:32.645Z,20.40
2018-02-14T13:22:58.824Z,20.44
2018-02-14T13:25:25.319Z,20.47
2018-02-14T13:27:51.500Z,20.47
2018-02-14T13:30:17.694Z,20.51
2018-02-14T13:32:43.920Z,20.53
2018-02-14T13:35:10.110Z,20.53
2018-02-14T13:37:36.668Z,20.55
2018-02-14T13:40:03.206Z,20.58
2018-02-14T13:42:29.382Z,20.62
2018-02-14T13:44:55.867Z,20.64
2018-02-14T13:47:22.090Z,20.69
2018-02-14T13:49:48.298Z,20.71
2018-02-14T13:52:14.523Z,20.73
2018-02-14T13:54:40.748Z,20.74
2018-02-14T13:57:06.935Z,20.75
2018-02-14T13:59:33.504Z,20.74
2018-02-14T14:01:59.763Z,20.75
2018-02-14T14:04:25.949Z,20.78
2018-02-14T14:06:52.498Z,20.80
2018-02-14T14:09:18.735Z,20.78
2018-02-14T14:11:45.157Z,20.79
2018-02-14T14:14:11.427Z,20.80
2018-02-14T14:16:37.953Z,20.82
2018-02-14T14:19:04.172Z,20.81
2018-02-14T14:21:30.408Z,20.81
2018-02-14T14:23:56.569Z,20.83
2018-02-14T14:26:22.892Z,20.83
2018-02-14T14:28:49.056Z,20.81
2018-02-14T14:31:15.231Z,20.80
2018-02-14T14:33:41.797Z,20.80
2018-02-14T14:36:07.989Z,20.81
2018-02-14T14:38:34.215Z,20.90
2018-02-14T14:41:00.485Z,20.98
2018-02-14T14:43:26.667Z,20.98
2018-02-14T14:45:52.865Z,20.97
2018-02-14T14:48:19.402Z,21.01
2018-02-14T14:50:45.592Z,21.10
2018-02-14T14:53:11.768Z,21.28
2018-02-14T14:55:38.011Z,21.58
2018-02-14T14:58:04.247Z,22.15
2018-02-14T15:00:30.434Z,22.87
2018-02-14T15:02:57.315Z,23.18
2018-02-14T15:05:23.753Z,23.21
2018-02-14T15:07:49.969Z,23.01
2018-02-14T15:10:16.212Z,22.73
2018-02-14T15:12:42.530Z,22.38
2018-02-14T15:15:08.742Z,22.10
2018-02-14T15:17:35.001Z,21.87
2018-02-14T15:20:01.261Z,21.77
2018-02-14T15:22:27.449Z,21.73
2018-02-14T15:24:53.705Z,21.68
2018-02-14T15:27:19.942Z,21.68
2018-02-14T15:29:46.169Z,21.63
2018-02-14T15:32:12.454Z,21.64
2018-02-14T15:34:38.678Z,21.68
2018-02-14T15:37:04.861Z,21.71
2018-02-14T15:39:31.090Z,21.70
2018-02-14T15:41:57.313Z,21.69
2018-02-14T15:44:23.572Z,21.70
2018-02-14T15:46:49.764Z,21.70
2018-02-14T15:49:15.961Z,21.67
2018-02-14T15:51:42.495Z,21.63
2018-02-14T15:54:08.677Z,21.55
2018-02-14T15:56:34.898Z,21.43
2018-02-14T15:59:01.562Z,21.32
2018-02-14T16:01:27.754Z,21.22
2018-02-14T16:03:53.920Z,21.08
2018-02-14T16:06:20.185Z,21.13
2018-02-14T16:08:46.368Z,21.07
2018-02-14T16:11:12.555Z,20.99
2018-02-14T16:13:39.092Z,20.82
2018-02-14T16:16:05.603Z,20.66
2018-02-14T16:18:31.805Z,20.53
2018-02-14T16:20:58.005Z,20.39
2018-02-14T16:23:24.213Z,20.29
2018-02-14T16:25:50.472Z,20.23
2018-02-14T16:28:16.692Z,20.17
2018-02-14T16:30:42.889Z,20.08
2018-02-14T16:33:09.153Z,20.01
2018-02-14T16:35:35.369Z,19.94
2018-02-14T16:38:01.560Z,19.88
2018-02-14T16:40:27.769Z,19.84
2018-02-14T16:42:53.984Z,19.77
2018-02-14T16:45:20.537Z,19.70
2018-02-14T16:47:46.769Z,19.65
2018-02-14T16:50:12.942Z,19.61
2018-02-14T16:52:39.220Z,19.57
2018-02-14T16:55:05.446Z,19.52
2018-02-14T16:57:31.895Z,19.47
2018-02-14T16:59:58.415Z,19.43
2018-02-14T17:02:24.608Z,19.41
2018-02-14T17:04:50.858Z,19.40
2018-02-14T17:07:17.023Z,19.39
2018-02-14T17:09:43.213Z,19.34
2018-02-14T17:12:09.453Z,19.31
2018-02-14T17:14:35.988Z,19.27
2018-02-14T17:17:02.196Z,19.24
2018-02-14T17:19:28.826Z,19.19
2018-02-14T17:21:55.033Z,19.15
2018-02-14T17:24:21.221Z,19.14
2018-02-14T17:26:47.598Z,19.11
2018-02-14T17:29:13.774Z,19.08
2018-02-14T17:31:40.302Z,19.07
2018-02-14T17:34:06.889Z,19.05
2018-02-14T17:36:33.073Z,19.02
2018-02-14T17:38:59.267Z,19.06
2018-02-14T17:41:25.503Z,19.07
2018-02-14T17:43:51.679Z,19.04
2018-02-14T17:46:17.941Z,19.01
2018-02-14T17:48:44.181Z,18.99
2018-02-14T17:51:10.348Z,18.98
2018-02-14T17:53:36.798Z,18.92
2018-02-14T17:56:03.769Z,18.94
2018-02-14T17:58:30.084Z,19.00
2018-02-14T18:00:56.427Z,19.02
2018-02-14T18:03:23.264Z,19.02
2018-02-14T18:05:49.992Z,19.01
2018-02-14T18:08:16.593Z,18.97
2018-02-14T18:10:42.831Z,18.95
2018-02-14T18:13:09.240Z,18.93
2018-02-14T18:15:35.499Z,18.95
2018-02-14T18:18:01.918Z,18.94
2018-02-14T18:20:28.094Z,18.91
2018-02-14T18:22:54.346Z,18.88
2018-02-14T18:25:20.805Z,18.86
2018-02-14T18:27:47.587Z,18.87
2018-02-14T18:30:14.205Z,18.90
2018-02-14T18:32:40.388Z,18.90
2018-02-14T18:35:07.121Z,18.90
2018-02-14T18:37:33.412Z,18.86
2018-02-14T18:39:59.636Z,18.87
2018-02-14T18:42:25.855Z,18.85
2018-02-14T18:44:52.186Z,18.84
2018-02-14T18:47:18.519Z,18.82
2018-02-14T18:49:44.728Z,18.79
2018-02-14T18:52:11.311Z,18.77
2018-02-14T18:54:37.530Z,18.78
2018-02-14T18:57:03.858Z,18.77
2018-02-14T18:59:30.169Z,18.75
2018-02-14T19:01:56.917Z,18.74
2018-02-14T19:04:23.118Z,18.74
2018-02-14T19:06:49.370Z,18.73
2018-02-14T19:09:15.596Z,18.83
2018-02-14T19:11:47.873Z,18.89
2018-02-14T19:14:14.165Z,18.86
2018-02-14T19:16:40.363Z,18.85
2018-02-14T19:19:06.639Z,18.84
2018-02-14T19:21:33.885Z,18.80
2018-02-14T19:24:01.031Z,18.83
2018-02-14T19:28:59.907Z,18.87
2018-02-14T19:31:26.139Z,18.88
2018-02-14T19:33:52.434Z,18.85
2018-02-14T19:36:18.692Z,18.83
2018-02-14T19:38:45.737Z,18.83
2018-02-14T19:41:12.048Z,18.84
2018-02-14T19:43:38.390Z,18.91
2018-02-14T19:46:04.608Z,18.94
2018-02-14T19:48:30.815Z,18.93
2018-02-14T19:50:58.072Z,18.92
2018-02-14T19:53:24.368Z,18.94
2018-02-14T19:55:50.584Z,18.90
2018-02-14T19:58:17.357Z,18.89
2018-02-14T20:00:43.576Z,18.89
2018-02-14T20:03:09.853Z,18.90
2018-02-14T20:05:36.221Z,18.90
2018-02-14T20:08:02.509Z,18.82
2018-02-14T20:10:28.745Z,18.82
2018-02-14T20:12:55.087Z,18.86
2018-02-14T20:15:21.302Z,18.90
2018-02-14T20:17:47.519Z,18.92
2018-02-14T20:20:14.158Z,18.97
2018-02-14T20:22:40.394Z,18.98
2018-02-14T20:25:06.637Z,18.94
2018-02-14T20:27:33.688Z,18.87
2018-02-14T20:29:59.992Z,18.86
2018-02-14T20:32:26.601Z,18.86
2018-02-14T20:34:52.900Z,18.86
2018-02-14T20:37:19.110Z,18.84
2018-02-14T20:39:45.688Z,18.88
2018-02-14T20:42:11.890Z,18.87
2018-02-14T20:44:38.110Z,18.87
2018-02-14T20:47:04.381Z,18.89
2018-02-14T20:49:30.585Z,18.95
2018-02-14T20:51:56.777Z,18.90
2018-02-14T20:54:23.432Z,18.88
2018-02-14T20:56:49.988Z,18.84
2018-02-14T20:59:16.190Z,18.77
2018-02-14T21:01:42.443Z,18.78
2018-02-14T21:04:08.650Z,18.77
2018-02-14T21:06:34.890Z,18.80
2018-02-14T21:09:01.102Z,18.79
2018-02-14T21:11:27.278Z,18.76
2018-02-14T21:13:53.813Z,18.78
2018-02-14T21:16:20.323Z,18.82
2018-02-14T21:18:46.570Z,18.82
2018-02-14T21:21:12.784Z,18.80
2018-02-14T21:23:38.998Z,18.75
2018-02-14T21:26:05.263Z,18.76
2018-02-14T21:28:31.449Z,18.73
2018-02-14T21:30:57.654Z,18.69
2018-02-14T21:33:23.921Z,18.69
2018-02-14T21:35:50.136Z,18.71
2018-02-14T21:38:16.328Z,18.68
2018-02-14T21:40:42.583Z,18.69
2018-02-14T21:43:08.807Z,18.73
2018-02-14T21:45:35.008Z,18.69
2018-02-14T21:48:01.472Z,18.69
2018-02-14T21:50:27.653Z,18.72
2018-02-14T21:52:54.158Z,18.73
2018-02-14T21:55:20.367Z,18.74
2018-02-14T21:57:46.834Z,18.71
2018-02-14T22:00:13.139Z,18.64
2018-02-14T22:02:39.441Z,18.62
2018-02-14T22:05:05.626Z,18.67
2018-02-14T22:07:31.831Z,18.74
2018-02-14T22:09:58.117Z,18.78
2018-02-14T22:12:24.340Z,18.77
2018-02-14T22:14:50.575Z,18.78
2018-02-14T22:17:16.777Z,18.74
2018-02-14T22:19:42.998Z,18.70
2018-02-14T22:22:11.056Z,18.66
2018-02-14T22:24:38.138Z,18.65
2018-02-14T22:29:49.860Z,18.62
2018-02-14T22:32:16.064Z,18.65
2018-02-14T22:34:42.311Z,18.65
2018-02-14T22:37:08.504Z,18.67
2018-02-14T22:39:34.695Z,18.67
2018-02-14T22:42:00.923Z,18.68
2018-02-14T22:44:27.113Z,18.69
2018-02-14T22:46:53.312Z,18.65
2018-02-14T22:49:19.780Z,18.70
2018-02-14T22:51:45.975Z,18.70
2018-02-14T22:54:12.163Z,18.70
2018-02-14T22:56:38.414Z,18.66
2018-02-14T22:59:04.946Z,18.64
2018-02-14T23:01:31.146Z,18.63
2018-02-14T23:03:57.431Z,18.61
2018-02-14T23:06:23.637Z,18.62
2018-02-14T23:08:49.911Z,18.63
2018-02-14T23:11:16.140Z,18.59
2018-02-14T23:13:42.364Z,18.63
2018-02-14T23:16:08.574Z,18.63
2018-02-14T23:18:34.822Z,18.66
2018-02-14T23:21:01.017Z,18.72
2018-02-14T23:23:27.203Z,18.74
2018-02-14T23:25:53.416Z,18.73
2018-02-14T23:28:19.651Z,18.85
2018-02-14T23:30:45.892Z,18.94
2018-02-14T23:33:12.103Z,18.99
2018-02-14T23:35:40.691Z,19.00
2018-02-14T23:38:06.874Z,18.98
2018-02-14T23:40:33.127Z,18.99
2018-02-14T23:42:59.344Z,19.00
2018-02-14T23:45:25.575Z,18.99
2018-02-14T23:47:51.810Z,18.99
2018-02-14T23:50:17.990Z,18.88
2018-02-14T23:52:44.421Z,18.78
2018-02-14T23:55:10.652Z,18.74
2018-02-14T23:57:36.850Z,18.72
